createdAt,value
2017-11-01T00:00:22.547Z,39.10
2017-11-01T00:02:50.088Z,40.10
2017-11-01T00:05:17.602Z,38.30
2017-11-01T00:07:45.062Z,41.28
2017-11-01T00:10:12.528Z,40.60
2017-11-01T00:12:40.020Z,41.80
2017-11-01T00:15:07.474Z,39.40
2017-11-01T00:17:34.947Z,41.28
2017-11-01T00:20:02.490Z,40.67
2017-11-01T00:22:30.084Z,40.72
2017-11-01T00:24:57.567Z,37.80
2017-11-01T00:27:25.051Z,40.67
2017-11-01T00:29:53.283Z,44.08
2017-11-01T00:32:20.749Z,38.85
2017-11-01T00:34:48.227Z,40.28
2017-11-01T00:37:15.742Z,42.55
2017-11-01T00:39:43.216Z,45.25
2017-11-01T00:42:10.927Z,43.78
2017-11-01T00:44:38.436Z,44.65
2017-11-01T00:47:06.707Z,42.72
2017-11-01T00:49:34.166Z,41.13
2017-11-01T00:52:01.646Z,40.33
2017-11-01T00:54:29.879Z,44.53
2017-11-01T00:56:57.371Z,41.53
2017-11-01T00:59:24.839Z,46.58
2017-11-01T01:01:53.088Z,39.70
2017-11-01T01:04:20.604Z,42.50
2017-11-01T01:06:48.094Z,44.42
2017-11-01T01:09:15.566Z,41.72
2017-11-01T01:11:43.026Z,42.05
2017-11-01T01:14:10.502Z,45.75
2017-11-01T01:16:38.723Z,42.38
2017-11-01T01:19:06.212Z,38.38
2017-11-01T01:21:33.687Z,41.17
2017-11-01T01:24:01.941Z,44.05
2017-11-01T01:26:29.407Z,41.65
2017-11-01T01:28:56.913Z,46.20
2017-11-01T01:31:24.423Z,37.88
2017-11-01T01:33:51.919Z,38.55
2017-11-01T01:36:19.376Z,39.78
2017-11-01T01:38:46.873Z,40.95
2017-11-01T01:41:14.331Z,39.83
2017-11-01T01:43:41.812Z,35.50
2017-11-01T01:46:10.051Z,37.90
2017-11-01T01:48:37.510Z,38.70
2017-11-01T01:51:04.995Z,35.60
2017-11-01T01:53:32.467Z,35.83
2017-11-01T01:55:59.938Z,35.63
2017-11-01T01:58:27.414Z,33.33
2017-11-01T02:00:54.890Z,34.50
2017-11-01T02:03:22.368Z,38.35
2017-11-01T02:05:49.859Z,36.03
2017-11-01T02:08:17.342Z,32.90
2017-11-01T02:10:44.855Z,33.35
2017-11-01T02:13:12.335Z,31.75
2017-11-01T02:15:40.587Z,39.72
2017-11-01T02:18:08.053Z,35.78
2017-11-01T02:20:36.290Z,36.28
2017-11-01T02:23:03.779Z,35.60
2017-11-01T02:25:31.254Z,36.75
2017-11-01T02:27:58.727Z,37.88
2017-11-01T02:30:26.224Z,36.90
2017-11-01T02:32:53.688Z,37.80
2017-11-01T02:35:21.187Z,40.05
2017-11-01T02:37:49.427Z,35.00
2017-11-01T02:40:16.910Z,33.65
2017-11-01T02:42:45.144Z,39.35
2017-11-01T02:45:12.606Z,34.67
2017-11-01T02:47:40.089Z,41.58
2017-11-01T02:50:07.575Z,33.30
2017-11-01T02:52:35.036Z,32.08
2017-11-01T02:55:03.300Z,33.55
2017-11-01T02:57:30.771Z,32.40
2017-11-01T02:59:58.250Z,33.53
2017-11-01T03:02:28.648Z,36.50
2017-11-01T03:04:56.130Z,37.78
2017-11-01T03:07:23.629Z,37.45
2017-11-01T03:09:51.119Z,39.22
2017-11-01T03:12:18.621Z,38.30
2017-11-01T03:14:46.093Z,41.05
2017-11-01T03:17:13.574Z,42.75
2017-11-01T03:19:41.807Z,44.08
2017-11-01T03:22:09.288Z,38.22
2017-11-01T03:24:36.761Z,45.53
2017-11-01T03:27:05.843Z,45.53
2017-11-01T03:29:33.366Z,52.60
2017-11-01T03:32:00.842Z,42.85
2017-11-01T03:34:28.328Z,42.00
2017-11-01T03:36:55.808Z,45.10
2017-11-01T03:39:23.275Z,53.08
2017-11-01T03:41:50.766Z,45.83
2017-11-01T03:44:18.270Z,58.83
2017-11-01T03:46:45.747Z,50.58
2017-11-01T03:49:13.235Z,52.92
2017-11-01T03:51:40.728Z,56.70
2017-11-01T03:54:08.255Z,54.88
2017-11-01T03:56:35.748Z,56.42
2017-11-01T03:59:03.207Z,51.37
2017-11-01T04:01:30.674Z,56.33
2017-11-01T04:03:58.179Z,48.63
2017-11-01T04:06:25.642Z,60.42
2017-11-01T04:08:53.231Z,51.95
2017-11-01T04:11:21.204Z,58.10
2017-11-01T04:13:49.484Z,52.38
2017-11-01T04:16:17.839Z,52.47
2017-11-01T04:21:58.221Z,52.35
2017-11-01T04:24:26.074Z,58.05
2017-11-01T04:26:53.942Z,56.25
2017-11-01T04:29:22.492Z,51.37
2017-11-01T04:31:51.415Z,57.62
2017-11-01T04:34:19.096Z,62.25
2017-11-01T04:36:46.804Z,61.67
2017-11-01T04:39:15.207Z,52.45
2017-11-01T04:41:43.125Z,58.70
2017-11-01T04:44:11.245Z,57.92
2017-11-01T04:46:38.965Z,60.12
2017-11-01T04:49:06.755Z,60.38
2017-11-01T04:51:34.495Z,62.88
2017-11-01T04:54:02.194Z,49.95
2017-11-01T04:56:30.903Z,55.60
2017-11-01T04:59:01.261Z,57.92
2017-11-01T05:01:48.493Z,61.78
2017-11-01T05:04:15.988Z,57.45
2017-11-01T05:06:46.289Z,56.30
2017-11-01T05:09:13.783Z,57.30
2017-11-01T05:11:41.317Z,59.38
2017-11-01T05:14:14.359Z,55.12
2017-11-01T05:16:44.552Z,58.28
2017-11-01T05:19:12.209Z,55.70
2017-11-01T05:21:39.831Z,58.95
2017-11-01T05:24:07.304Z,53.58
2017-11-01T05:26:34.788Z,62.05
2017-11-01T05:29:02.247Z,56.80
2017-11-01T05:31:29.724Z,65.00
2017-11-01T05:33:57.209Z,58.03
2017-11-01T05:36:24.720Z,63.58
2017-11-01T05:38:52.240Z,60.72
2017-11-01T05:41:19.758Z,51.55
2017-11-01T05:43:48.037Z,62.30
2017-11-01T05:46:15.538Z,66.15
2017-11-01T05:48:43.075Z,59.40
2017-11-01T05:51:11.342Z,55.65
2017-11-01T05:53:38.858Z,58.53
2017-11-01T05:56:06.365Z,59.63
2017-11-01T05:58:33.836Z,49.10
2017-11-01T06:01:01.304Z,46.80
2017-11-01T06:03:28.799Z,45.75
2017-11-01T06:05:56.275Z,45.60
2017-11-01T06:08:24.536Z,48.42
2017-11-01T06:10:52.002Z,39.72
2017-11-01T06:13:20.295Z,42.90
2017-11-01T06:15:47.748Z,37.47
2017-11-01T06:18:15.285Z,44.05
2017-11-01T06:20:42.759Z,46.90
2017-11-01T06:23:11.032Z,39.28
2017-11-01T06:25:38.551Z,43.67
2017-11-01T06:28:06.003Z,42.67
2017-11-01T06:30:33.506Z,45.38
2017-11-01T06:33:00.970Z,41.25
2017-11-01T06:35:28.464Z,43.30
2017-11-01T06:37:57.372Z,37.67
2017-11-01T06:40:24.960Z,40.05
2017-11-01T06:42:53.203Z,40.90
2017-11-01T06:45:20.737Z,37.10
2017-11-01T06:47:48.227Z,36.17
2017-11-01T06:50:15.710Z,35.50
2017-11-01T06:52:43.184Z,34.85
2017-11-01T06:55:10.662Z,43.05
2017-11-01T06:57:38.166Z,43.30
2017-11-01T07:00:08.459Z,39.40
2017-11-01T07:02:37.850Z,45.47
2017-11-01T07:05:09.014Z,43.40
2017-11-01T07:07:36.474Z,42.92
2017-11-01T07:10:03.954Z,41.30
2017-11-01T07:12:31.441Z,43.97
2017-11-01T07:14:58.959Z,41.22
2017-11-01T07:17:26.467Z,43.33
2017-11-01T07:19:53.934Z,43.67
2017-11-01T07:22:21.451Z,43.47
2017-11-01T07:24:48.922Z,40.00
2017-11-01T07:27:17.223Z,42.55
2017-11-01T07:29:44.723Z,37.50
2017-11-01T07:32:13.236Z,44.72
2017-11-01T07:34:40.712Z,43.30
2017-11-01T07:37:08.241Z,38.05
2017-11-01T07:39:36.517Z,36.60
2017-11-01T07:42:04.164Z,41.30
2017-11-01T07:44:31.704Z,33.25
2017-11-01T07:46:59.235Z,38.90
2017-11-01T07:49:26.706Z,44.13
2017-11-01T07:51:54.209Z,45.70
2017-11-01T07:54:22.495Z,40.10
2017-11-01T07:56:50.051Z,33.15
2017-11-01T07:59:18.383Z,37.70
2017-11-01T08:01:45.877Z,36.63
2017-11-01T08:04:13.376Z,38.90
2017-11-01T08:06:40.840Z,39.95
2017-11-01T08:09:08.323Z,38.55
2017-11-01T08:11:35.813Z,43.22
2017-11-01T08:14:03.298Z,39.70
2017-11-01T08:16:30.786Z,37.63
2017-11-01T08:18:58.266Z,44.40
2017-11-01T08:21:25.801Z,49.95
2017-11-01T08:23:53.318Z,38.58
2017-11-01T08:26:20.788Z,40.38
2017-11-01T08:28:48.324Z,34.85
2017-11-01T08:31:15.788Z,33.95
2017-11-01T08:33:43.290Z,33.33
2017-11-01T08:36:10.764Z,36.88
2017-11-01T08:38:38.252Z,36.15
2017-11-01T08:41:05.716Z,33.40
2017-11-01T08:43:33.218Z,37.55
2017-11-01T08:46:00.679Z,35.22
2017-11-01T08:48:28.184Z,32.95
2017-11-01T08:50:55.696Z,32.13
2017-11-01T08:53:23.218Z,35.15
2017-11-01T08:55:50.692Z,32.15
2017-11-01T08:58:18.178Z,32.63
2017-11-01T09:00:45.655Z,34.72
2017-11-01T09:03:13.168Z,42.58
2017-11-01T09:05:40.646Z,40.33
2017-11-01T09:08:08.171Z,39.67
2017-11-01T09:10:35.630Z,37.95
2017-11-01T09:13:03.114Z,43.90
2017-11-01T09:15:30.609Z,36.13
2017-11-01T09:17:59.032Z,37.65
2017-11-01T09:20:26.530Z,36.55
2017-11-01T09:22:54.018Z,35.75
2017-11-01T09:25:22.972Z,35.78
2017-11-01T09:27:50.450Z,42.15
2017-11-01T09:30:18.702Z,33.72
2017-11-01T09:32:46.167Z,39.47
2017-11-01T09:35:13.634Z,39.40
2017-11-01T09:37:41.128Z,34.35
2017-11-01T09:40:08.638Z,33.30
2017-11-01T09:42:36.189Z,29.15
2017-11-01T09:45:03.674Z,32.10
2017-11-01T09:47:31.158Z,33.13
2017-11-01T09:49:58.651Z,31.67
2017-11-01T09:52:26.124Z,33.40
2017-11-01T09:54:53.781Z,30.20
2017-11-01T09:57:21.276Z,30.60
2017-11-01T09:59:48.787Z,33.70
2017-11-01T10:02:16.417Z,30.15
2017-11-01T10:04:44.131Z,30.55
2017-11-01T10:07:15.478Z,31.52
2017-11-01T10:09:43.219Z,30.05
2017-11-01T10:12:10.714Z,27.23
2017-11-01T10:14:38.279Z,26.60
2017-11-01T10:17:05.840Z,32.17
2017-11-01T10:19:33.400Z,29.92
2017-11-01T10:22:00.883Z,30.95
2017-11-01T10:24:29.176Z,27.00
2017-11-01T10:26:57.130Z,26.15
2017-11-01T10:29:24.747Z,36.28
2017-11-01T10:31:53.201Z,31.00
2017-11-01T10:34:22.932Z,31.20
2017-11-01T10:36:50.463Z,27.92
2017-11-01T10:39:18.091Z,27.60
2017-11-01T10:41:45.723Z,28.50
2017-11-01T10:44:13.263Z,26.92
2017-11-01T10:46:40.794Z,29.37
2017-11-01T10:49:08.638Z,30.42
2017-11-01T10:51:36.236Z,40.20
2017-11-01T10:54:08.336Z,33.33
2017-11-01T10:56:37.841Z,30.67
2017-11-01T10:59:05.380Z,31.37
2017-11-01T11:01:47.810Z,29.58
2017-11-01T11:04:15.431Z,30.00
2017-11-01T11:06:42.973Z,34.63
2017-11-01T11:09:10.439Z,30.02
2017-11-01T11:11:38.021Z,31.87
2017-11-01T11:14:05.502Z,28.17
2017-11-01T11:16:33.081Z,34.75
2017-11-01T11:19:00.605Z,32.78
2017-11-01T11:21:28.143Z,32.95
2017-11-01T11:23:56.054Z,31.15
2017-11-01T11:26:23.693Z,36.22
2017-11-01T11:28:52.087Z,28.15
2017-11-01T11:31:19.718Z,33.60
2017-11-01T11:33:47.356Z,35.65
2017-11-01T11:36:18.257Z,32.45
2017-11-01T11:38:47.245Z,36.80
2017-11-01T11:41:15.400Z,31.08
2017-11-01T11:43:43.716Z,36.67
2017-11-01T11:46:11.227Z,37.10
2017-11-01T11:48:38.982Z,39.03
2017-11-01T11:51:07.720Z,33.70
2017-11-01T11:53:35.325Z,35.20
2017-11-01T11:56:06.931Z,40.92
2017-11-01T11:58:34.624Z,41.75
2017-11-01T12:01:02.173Z,44.75
2017-11-01T12:03:29.665Z,43.15
2017-11-01T12:05:57.241Z,43.67
2017-11-01T12:08:24.805Z,53.63
2017-11-01T12:10:55.433Z,49.78
2017-11-01T12:13:22.983Z,47.40
2017-11-01T12:15:52.795Z,41.63
2017-11-01T12:18:20.450Z,48.30
2017-11-01T12:20:50.395Z,44.92
2017-11-01T12:23:18.086Z,41.78
2017-11-01T12:25:46.812Z,45.25
2017-11-01T12:28:14.368Z,47.53
2017-11-01T12:30:42.825Z,41.42
2017-11-01T12:33:19.114Z,41.92
2017-11-01T12:35:56.130Z,47.53
2017-11-01T12:38:23.795Z,44.65
2017-11-01T12:40:51.422Z,36.67
2017-11-01T12:43:19.953Z,42.10
2017-11-01T12:45:58.875Z,44.58
2017-11-01T12:48:27.499Z,43.95
2017-11-01T12:50:56.476Z,37.50
2017-11-01T12:53:24.165Z,37.90
2017-11-01T12:58:34.744Z,39.60
2017-11-01T13:01:02.564Z,32.30
2017-11-01T13:03:30.118Z,44.55
2017-11-01T13:05:57.725Z,39.38
2017-11-01T13:08:25.315Z,34.58
2017-11-01T13:10:52.875Z,38.85
2017-11-01T13:13:20.377Z,45.72
2017-11-01T13:15:48.030Z,41.25
2017-11-01T13:18:15.652Z,37.80
2017-11-01T13:20:43.228Z,45.20
2017-11-01T13:23:10.856Z,39.85
2017-11-01T13:25:39.101Z,43.15
2017-11-01T13:28:06.623Z,40.20
2017-11-01T13:30:34.126Z,38.67
2017-11-01T13:33:01.604Z,42.45
2017-11-01T13:35:29.313Z,31.67
2017-11-01T13:37:57.019Z,42.30
2017-11-01T13:40:26.012Z,45.60
2017-11-01T13:42:53.590Z,30.92
2017-11-01T13:45:21.845Z,47.10
2017-11-01T13:47:49.315Z,39.17
2017-11-01T13:50:17.580Z,38.28
2017-11-01T13:52:45.070Z,42.33
2017-11-01T13:55:12.537Z,36.25
2017-11-01T13:57:40.031Z,40.30
2017-11-01T14:00:07.492Z,43.70
2017-11-01T14:02:35.022Z,33.33
2017-11-01T14:05:02.493Z,45.75
2017-11-01T14:07:29.982Z,34.88
2017-11-01T14:09:57.424Z,39.42
2017-11-01T14:12:24.895Z,38.15
2017-11-01T14:14:52.362Z,40.95
2017-11-01T14:17:20.603Z,35.08
2017-11-01T14:19:48.080Z,44.03
2017-11-01T14:22:15.549Z,37.95
2017-11-01T14:24:43.817Z,34.35
2017-11-01T14:27:11.375Z,35.53
2017-11-01T14:29:38.874Z,39.22
2017-11-01T14:32:06.391Z,37.00
2017-11-01T14:34:33.914Z,40.03
2017-11-01T14:37:01.393Z,35.63
2017-11-01T14:39:28.862Z,36.78
2017-11-01T14:41:56.324Z,39.40
2017-11-01T14:44:23.791Z,41.42
2017-11-01T14:46:52.066Z,35.75
2017-11-01T14:49:19.742Z,36.80
2017-11-01T14:51:48.055Z,45.17
2017-11-01T14:54:15.513Z,40.45
2017-11-01T14:56:42.959Z,35.88
2017-11-01T14:59:10.413Z,34.05
2017-11-01T15:01:37.871Z,33.80
2017-11-01T15:04:05.331Z,31.62
2017-11-01T15:06:32.802Z,38.25
2017-11-01T15:09:00.302Z,37.95
2017-11-01T15:11:27.959Z,36.17
2017-11-01T15:13:56.235Z,38.70
2017-11-01T15:16:23.766Z,36.03
2017-11-01T15:18:51.247Z,32.22
2017-11-01T15:21:18.826Z,32.47
2017-11-01T15:23:46.395Z,42.80
2017-11-01T15:26:14.027Z,41.37
2017-11-01T15:28:41.756Z,38.67
2017-11-01T15:31:09.437Z,37.80
2017-11-01T15:33:37.015Z,38.95
2017-11-01T15:36:04.701Z,43.40
2017-11-01T15:38:32.407Z,38.20
2017-11-01T15:41:01.119Z,38.38
2017-11-01T15:43:28.747Z,41.80
2017-11-01T15:45:56.545Z,39.92
2017-11-01T15:48:24.037Z,43.92
2017-11-01T15:50:51.713Z,43.17
2017-11-01T15:53:19.313Z,47.70
2017-11-01T15:55:46.985Z,45.53
2017-11-01T15:58:14.723Z,36.25
2017-11-01T16:00:43.361Z,55.60
2017-11-01T16:03:10.926Z,54.60
2017-11-01T16:05:38.507Z,38.45
2017-11-01T16:08:06.042Z,51.85
2017-11-01T16:10:33.713Z,52.38
2017-11-01T16:13:01.440Z,56.78
2017-11-01T16:15:29.230Z,57.58
2017-11-01T16:17:57.168Z,58.00
2017-11-01T16:20:26.897Z,56.78
2017-11-01T16:22:54.449Z,57.40
2017-11-01T16:25:21.967Z,67.72
2017-11-01T16:27:49.483Z,59.47
2017-11-01T16:30:17.012Z,59.92
2017-11-01T16:32:44.499Z,63.67
2017-11-01T16:35:12.034Z,63.08
2017-11-01T16:37:39.619Z,73.35
2017-11-01T16:40:07.159Z,78.07
2017-11-01T16:42:34.793Z,72.40
2017-11-01T16:45:02.385Z,69.55
2017-11-01T16:47:30.290Z,74.75
2017-11-01T16:49:57.855Z,71.87
2017-11-01T16:52:25.433Z,71.65
2017-11-01T16:54:53.943Z,79.72
2017-11-01T16:57:21.497Z,73.78
2017-11-01T16:59:49.091Z,79.03
2017-11-01T17:02:16.726Z,77.57
2017-11-01T17:04:44.341Z,70.78
2017-11-01T17:07:12.615Z,79.28
2017-11-01T17:09:40.290Z,77.80
2017-11-01T17:12:07.801Z,73.43
2017-11-01T17:14:36.673Z,70.62
2017-11-01T17:17:04.435Z,69.70
2017-11-01T17:19:32.015Z,78.87
2017-11-01T17:21:59.607Z,73.80
2017-11-01T17:24:27.123Z,78.93
2017-11-01T17:26:55.065Z,83.10
2017-11-01T17:29:22.706Z,77.87
2017-11-01T17:31:50.276Z,64.10
2017-11-01T17:34:17.823Z,77.05
2017-11-01T17:36:45.339Z,68.87
2017-11-01T17:39:14.540Z,72.68
2017-11-01T17:41:43.812Z,75.85
2017-11-01T17:44:11.371Z,75.93
2017-11-01T17:46:39.116Z,68.18
2017-11-01T17:49:06.671Z,72.25
2017-11-01T17:51:34.182Z,68.32
2017-11-01T17:54:01.723Z,70.07
2017-11-01T17:56:30.734Z,67.82
2017-11-01T17:58:58.273Z,65.70
2017-11-01T18:01:25.829Z,67.65
2017-11-01T18:03:53.551Z,70.05
2017-11-01T18:06:21.063Z,54.17
2017-11-01T18:08:48.671Z,66.20
2017-11-01T18:11:16.180Z,60.35
2017-11-01T18:13:43.735Z,68.00
2017-11-01T18:16:11.264Z,64.00
2017-11-01T18:18:39.790Z,63.10
2017-11-01T18:21:07.542Z,62.22
2017-11-01T18:23:35.099Z,56.50
2017-11-01T18:26:02.875Z,65.03
2017-11-01T18:28:30.370Z,60.53
2017-11-01T18:30:57.879Z,56.83
2017-11-01T18:33:25.430Z,57.70
2017-11-01T18:35:52.978Z,56.80
2017-11-01T18:38:20.547Z,55.17
2017-11-01T18:40:48.327Z,60.30
2017-11-01T18:43:16.479Z,59.25
2017-11-01T18:45:44.433Z,58.70
2017-11-01T18:48:12.031Z,63.55
2017-11-01T18:50:40.510Z,64.90
2017-11-01T18:53:08.084Z,60.28
2017-11-01T18:55:35.718Z,62.60
2017-11-01T18:58:03.548Z,60.58
2017-11-01T19:00:31.055Z,55.45
2017-11-01T19:02:58.598Z,62.62
2017-11-01T19:05:26.159Z,63.17
2017-11-01T19:07:53.703Z,59.13
2017-11-01T19:10:21.230Z,55.28
2017-11-01T19:12:48.746Z,68.15
2017-11-01T19:15:16.295Z,72.57
2017-11-01T19:17:43.770Z,69.22
2017-11-01T19:20:11.374Z,62.83
2017-11-01T19:22:38.870Z,61.22
2017-11-01T19:25:06.539Z,74.22
2017-11-01T19:27:34.422Z,60.65
2017-11-01T19:30:01.955Z,59.83
2017-11-01T19:32:29.527Z,63.58
2017-11-01T19:34:57.082Z,66.90
2017-11-01T19:37:24.552Z,67.07
2017-11-01T19:39:52.082Z,61.15
2017-11-01T19:42:19.928Z,59.40
2017-11-01T19:44:47.431Z,58.15
2017-11-01T19:47:14.977Z,53.58
2017-11-01T19:49:42.482Z,53.87
2017-11-01T19:52:10.081Z,60.17
2017-11-01T19:54:38.924Z,62.62
2017-11-01T19:57:07.322Z,57.97
2017-11-01T19:59:35.019Z,63.03
2017-11-01T20:02:02.594Z,64.95
2017-11-01T20:04:30.113Z,55.70
2017-11-01T20:06:57.653Z,52.83
2017-11-01T20:09:26.042Z,51.80
2017-11-01T20:11:53.550Z,58.33
2017-11-01T20:14:21.064Z,53.38
2017-11-01T20:16:48.817Z,65.70
2017-11-01T20:19:16.312Z,58.13
2017-11-01T20:21:44.082Z,62.30
2017-11-01T20:24:11.843Z,57.40
2017-11-01T20:26:42.125Z,58.65
2017-11-01T20:29:09.765Z,56.30
2017-11-01T20:31:37.289Z,60.05
2017-11-01T20:34:04.803Z,69.95
2017-11-01T20:36:32.813Z,56.30
2017-11-01T20:39:00.496Z,66.53
2017-11-01T20:41:28.033Z,60.42
2017-11-01T20:43:55.596Z,59.22
2017-11-01T20:46:23.214Z,71.87
2017-11-01T20:48:50.718Z,66.20
2017-11-01T20:51:18.325Z,62.62
2017-11-01T20:53:45.830Z,73.30
2017-11-01T20:56:13.438Z,67.12
2017-11-01T20:58:40.941Z,63.53
2017-11-01T21:01:08.567Z,62.97
2017-11-01T21:03:36.066Z,62.70
2017-11-01T21:06:03.611Z,65.72
2017-11-01T21:08:31.267Z,58.40
2017-11-01T21:10:58.746Z,61.37
2017-11-01T21:13:27.019Z,61.15
2017-11-01T21:15:54.493Z,55.28
2017-11-01T21:18:22.075Z,63.13
2017-11-01T21:20:49.602Z,61.67
2017-11-01T21:23:17.138Z,55.72
2017-11-01T21:25:44.710Z,58.33
2017-11-01T21:28:12.250Z,63.78
2017-11-01T21:30:39.743Z,59.65
2017-11-01T21:33:07.273Z,63.87
2017-11-01T21:35:34.831Z,61.30
2017-11-01T21:38:02.301Z,58.13
2017-11-01T21:40:29.854Z,48.87
2017-11-01T21:42:58.139Z,58.42
2017-11-01T21:45:25.638Z,57.22
2017-11-01T21:47:53.145Z,54.03
2017-11-01T21:50:21.716Z,58.03
2017-11-01T21:52:49.984Z,61.33
2017-11-01T21:55:17.555Z,62.50
2017-11-01T21:57:45.028Z,57.83
2017-11-01T22:00:12.573Z,49.17
2017-11-01T22:02:40.885Z,50.22
2017-11-01T22:05:08.418Z,51.25
2017-11-01T22:07:35.927Z,45.08
2017-11-01T22:10:03.496Z,37.17
2017-11-01T22:12:31.223Z,28.70
2017-11-01T22:14:58.755Z,24.15
2017-11-01T22:17:26.272Z,16.55
2017-11-01T22:19:53.756Z,22.87
2017-11-01T22:22:21.442Z,23.40
2017-11-01T22:24:48.996Z,25.75
2017-11-01T22:27:16.534Z,29.85
2017-11-01T22:29:44.294Z,31.55
2017-11-01T22:32:11.771Z,29.70
2017-11-01T22:34:39.282Z,22.02
2017-11-01T22:37:06.793Z,18.35
2017-11-01T22:39:34.279Z,16.62
2017-11-01T22:42:01.778Z,19.23
2017-11-01T22:44:29.318Z,20.15
2017-11-01T22:46:56.847Z,20.17
2017-11-01T22:49:24.328Z,21.15
2017-11-01T22:51:51.940Z,16.98
2017-11-01T22:54:19.477Z,22.60
2017-11-01T22:56:47.061Z,22.87
2017-11-01T22:59:14.584Z,25.12
2017-11-01T23:01:42.080Z,25.02
2017-11-01T23:04:09.593Z,26.35
2017-11-01T23:06:37.103Z,29.12
2017-11-01T23:09:04.722Z,33.13
2017-11-01T23:11:32.315Z,38.28
2017-11-01T23:14:01.317Z,38.53
2017-11-01T23:16:29.162Z,32.40
2017-11-01T23:18:56.723Z,42.50
2017-11-01T23:21:24.286Z,37.45
2017-11-01T23:23:51.794Z,43.08
2017-11-01T23:26:19.307Z,47.78
2017-11-01T23:28:47.543Z,48.70
2017-11-01T23:31:15.011Z,62.70
2017-11-01T23:33:42.491Z,64.43
2017-11-01T23:36:09.958Z,68.55
2017-11-01T23:38:37.441Z,61.33
2017-11-01T23:41:04.916Z,65.35
2017-11-01T23:43:32.385Z,68.22
2017-11-01T23:45:59.859Z,68.55
2017-11-01T23:48:27.323Z,64.68
2017-11-01T23:50:54.778Z,69.80
2017-11-01T23:53:23.058Z,72.05
2017-11-01T23:55:50.522Z,67.65
2017-11-01T23:58:18.047Z,63.03
